createdAt,value
2023-02-17T00:01:30.903Z,99.90
2023-02-17T00:04:02.169Z,99.90
2023-02-17T00:06:31.665Z,99.90
2023-02-17T00:09:01.868Z,99.90
2023-02-17T00:11:30.320Z,99.90
2023-02-17T00:14:00.730Z,99.90
2023-02-17T00:16:29.762Z,99.90
2023-02-17T00:19:00.710Z,99.90
2023-02-17T00:21:32.515Z,99.90
2023-02-17T00:24:02.072Z,99.90
2023-02-17T00:26:30.453Z,99.90
2023-02-17T00:28:59.493Z,99.90
2023-02-17T00:31:27.739Z,99.90
2023-02-17T00:33:56.566Z,99.90
2023-02-17T00:36:25.089Z,99.90
2023-02-17T00:38:54.980Z,99.90
2023-02-17T00:41:25.549Z,99.90
2023-02-17T00:48:30.721Z,99.90
2023-02-17T00:50:59.187Z,99.90
2023-02-17T00:53:28.230Z,99.90
2023-02-17T00:55:56.374Z,99.90
2023-02-17T00:58:26.127Z,99.90
2023-02-17T01:00:55.943Z,99.90
2023-02-17T01:03:24.016Z,99.90
2023-02-17T01:05:52.199Z,99.90
2023-02-17T01:08:20.233Z,99.90
2023-02-17T01:10:49.691Z,99.90
2023-02-17T01:13:19.394Z,99.90
2023-02-17T01:15:50.545Z,99.90
2023-02-17T01:18:19.983Z,99.90
2023-02-17T01:20:47.992Z,99.90
2023-02-17T01:23:16.705Z,99.90
2023-02-17T01:25:46.819Z,99.90
2023-02-17T01:28:17.554Z,99.90
2023-02-17T01:30:45.567Z,99.90
2023-02-17T01:33:15.117Z,99.90
2023-02-17T01:35:43.288Z,99.90
2023-02-17T01:38:11.356Z,99.90
2023-02-17T01:40:46.431Z,99.90
2023-02-17T01:43:18.066Z,99.90
2023-02-17T01:45:50.827Z,99.90
2023-02-17T01:48:22.942Z,99.90
2023-02-17T01:50:56.165Z,99.90
2023-02-17T01:53:29.465Z,99.90
2023-02-17T01:55:58.547Z,99.90
2023-02-17T01:58:27.872Z,99.90
2023-02-17T02:00:59.847Z,99.90
2023-02-17T02:03:32.430Z,99.90
2023-02-17T02:06:02.674Z,99.90
2023-02-17T02:08:33.728Z,99.90
2023-02-17T02:11:01.763Z,99.90
2023-02-17T02:13:29.769Z,99.90
2023-02-17T02:16:04.995Z,99.90
2023-02-17T02:18:45.608Z,99.90
2023-02-17T02:21:53.000Z,99.90
2023-02-17T02:24:32.273Z,99.90
2023-02-17T02:27:25.854Z,99.90
2023-02-17T02:30:03.871Z,99.90
2023-02-17T02:32:49.645Z,99.90
2023-02-17T02:35:22.281Z,99.90
2023-02-17T02:37:58.087Z,99.90
2023-02-17T02:40:30.152Z,99.90
2023-02-17T02:42:59.312Z,99.90
2023-02-17T02:45:27.376Z,99.90
2023-02-17T02:47:58.191Z,99.90
2023-02-17T02:50:36.436Z,99.90
2023-02-17T02:53:28.993Z,99.90
2023-02-17T02:56:04.000Z,99.90
2023-02-17T02:58:47.031Z,99.90
2023-02-17T03:01:24.146Z,99.90
2023-02-17T03:04:03.972Z,99.90
2023-02-17T03:06:37.994Z,99.90
2023-02-17T03:09:10.470Z,99.90
2023-02-17T03:11:42.650Z,99.90
2023-02-17T03:14:13.658Z,99.90
2023-02-17T03:16:43.210Z,99.90
2023-02-17T03:19:13.709Z,99.90
2023-02-17T03:21:45.078Z,99.90
2023-02-17T03:24:13.072Z,99.90
2023-02-17T03:26:41.042Z,99.90
2023-02-17T03:29:09.043Z,99.90
2023-02-17T03:31:37.672Z,99.90
2023-02-17T03:34:05.912Z,99.90
2023-02-17T03:36:35.365Z,99.90
2023-02-17T03:39:03.505Z,99.90
2023-02-17T03:41:31.480Z,99.90
2023-02-17T03:43:59.693Z,99.90
2023-02-17T03:46:27.676Z,99.90
2023-02-17T03:48:56.163Z,99.90
2023-02-17T03:51:25.631Z,99.90
2023-02-17T03:53:55.025Z,99.90
2023-02-17T03:56:23.073Z,99.90
2023-02-17T03:58:51.087Z,99.90
2023-02-17T04:01:19.121Z,99.90
2023-02-17T04:03:47.231Z,99.90
2023-02-17T04:06:17.652Z,99.90
2023-02-17T04:08:45.657Z,99.90
2023-02-17T04:11:15.206Z,99.90
2023-02-17T04:13:43.201Z,99.90
2023-02-17T04:16:11.773Z,99.90
2023-02-17T04:18:40.177Z,99.90
2023-02-17T04:21:08.831Z,99.90
2023-02-17T04:23:37.351Z,99.90
2023-02-17T04:26:06.672Z,99.90
2023-02-17T04:28:36.335Z,99.90
2023-02-17T04:31:04.913Z,99.90
2023-02-17T04:33:32.958Z,99.90
2023-02-17T04:36:01.054Z,99.90
2023-02-17T04:38:30.128Z,99.90
2023-02-17T04:40:59.019Z,99.90
2023-02-17T04:43:28.136Z,99.90
2023-02-17T04:45:58.533Z,99.90
2023-02-17T04:48:26.973Z,99.90
2023-02-17T04:50:55.107Z,99.90
2023-02-17T04:53:23.155Z,99.90
2023-02-17T04:55:52.796Z,99.90
2023-02-17T04:58:22.058Z,99.90
2023-02-17T05:00:51.133Z,99.90
2023-02-17T05:03:20.642Z,99.90
2023-02-17T05:05:48.649Z,99.90
2023-02-17T05:08:18.987Z,99.90
2023-02-17T05:10:46.953Z,99.90
2023-02-17T05:13:17.669Z,99.90
2023-02-17T05:15:46.302Z,99.90
2023-02-17T05:18:15.133Z,99.90
2023-02-17T05:20:44.469Z,99.90
2023-02-17T05:23:12.460Z,99.90
2023-02-17T05:25:40.874Z,99.90
2023-02-17T05:28:08.886Z,99.90
2023-02-17T05:30:36.902Z,99.90
2023-02-17T05:33:04.994Z,99.90
2023-02-17T05:35:35.111Z,99.90
2023-02-17T05:38:04.625Z,99.90
2023-02-17T05:40:32.636Z,99.90
2023-02-17T05:43:00.643Z,99.90
2023-02-17T05:45:28.601Z,99.90
2023-02-17T05:47:56.560Z,99.90
2023-02-17T05:50:24.534Z,99.90
2023-02-17T05:52:52.627Z,99.90
2023-02-17T05:55:22.217Z,99.90
2023-02-17T05:57:50.540Z,99.90
2023-02-17T06:00:18.927Z,99.90
2023-02-17T06:02:47.084Z,99.90
2023-02-17T06:05:16.266Z,99.90
2023-02-17T06:07:44.507Z,99.90
2023-02-17T06:10:13.078Z,99.90
2023-02-17T06:12:45.515Z,99.90
2023-02-17T06:15:13.701Z,99.90
2023-02-17T06:17:45.737Z,99.90
2023-02-17T06:20:14.726Z,99.90
2023-02-17T06:22:54.927Z,99.90
2023-02-17T06:25:23.168Z,99.90
2023-02-17T06:27:52.718Z,99.90
2023-02-17T06:30:21.424Z,99.90
2023-02-17T06:32:49.542Z,99.90
2023-02-17T06:35:17.907Z,99.90
2023-02-17T06:37:46.002Z,99.90
2023-02-17T06:40:14.839Z,99.90
2023-02-17T06:42:42.872Z,99.90
2023-02-17T06:45:12.323Z,99.90
2023-02-17T06:47:40.401Z,99.90
2023-02-17T06:50:10.063Z,99.90
2023-02-17T06:52:38.163Z,99.90
2023-02-17T06:55:06.724Z,99.90
2023-02-17T06:57:34.700Z,99.90
2023-02-17T07:00:02.863Z,99.90
2023-02-17T07:02:32.430Z,99.90
2023-02-17T07:05:00.438Z,99.90
2023-02-17T07:07:28.558Z,99.90
2023-02-17T07:09:56.764Z,99.90
2023-02-17T07:12:25.024Z,99.90
2023-02-17T07:14:53.034Z,99.90
2023-02-17T07:17:21.109Z,99.90
2023-02-17T07:19:50.494Z,99.90
2023-02-17T07:22:19.628Z,99.90
2023-02-17T07:24:47.631Z,99.90
2023-02-17T07:27:24.395Z,99.90
2023-02-17T07:29:54.053Z,99.90
2023-02-17T07:32:22.089Z,99.90
2023-02-17T07:34:51.746Z,99.90
2023-02-17T07:37:21.742Z,99.90
2023-02-17T07:39:49.910Z,99.90
2023-02-17T07:42:17.943Z,99.90
2023-02-17T07:44:46.054Z,99.90
2023-02-17T07:47:14.095Z,99.90
2023-02-17T07:49:42.125Z,99.80
2023-02-17T07:52:11.580Z,95.20
2023-02-17T07:54:40.581Z,92.40
2023-02-17T07:57:08.567Z,89.20
2023-02-17T07:59:36.535Z,85.50
2023-02-17T08:02:04.718Z,83.20
2023-02-17T08:04:33.744Z,82.40
2023-02-17T08:07:02.000Z,83.50
2023-02-17T08:09:49.580Z,86.80
2023-02-17T08:12:38.403Z,92.20
2023-02-17T08:15:07.876Z,94.70
2023-02-17T08:17:39.633Z,93.50
2023-02-17T08:20:09.419Z,93.30
2023-02-17T08:22:37.915Z,92.90
2023-02-17T08:25:07.722Z,90.80
2023-02-17T08:27:35.753Z,87.00
2023-02-17T08:30:04.220Z,79.50
2023-02-17T08:32:32.254Z,64.60
2023-02-17T08:35:00.396Z,41.00
2023-02-17T08:37:30.220Z,22.20
2023-02-17T08:39:59.043Z,13.60
2023-02-17T08:42:28.741Z,14.20
2023-02-17T08:44:56.764Z,17.10
2023-02-17T08:47:24.787Z,8.20
2023-02-17T08:49:52.873Z,1.00
2023-02-17T08:52:21.041Z,1.00
2023-02-17T08:54:51.528Z,1.00
2023-02-17T08:57:21.493Z,1.00
2023-02-17T08:59:51.257Z,1.00
2023-02-17T09:02:19.349Z,1.00
2023-02-17T09:04:47.759Z,1.00
2023-02-17T09:07:16.538Z,1.00
2023-02-17T09:09:44.697Z,1.00
2023-02-17T09:12:13.173Z,1.00
2023-02-17T09:14:41.218Z,1.00
2023-02-17T09:17:12.035Z,1.00
2023-02-17T09:19:40.890Z,1.00
2023-02-17T09:22:08.921Z,1.00
2023-02-17T09:24:38.739Z,1.00
2023-02-17T09:27:06.844Z,1.80
2023-02-17T09:29:34.840Z,9.60
2023-02-17T09:32:03.001Z,16.80
2023-02-17T09:34:32.488Z,22.40
2023-02-17T09:37:01.228Z,28.30
2023-02-17T09:39:29.331Z,39.00
2023-02-17T09:41:58.885Z,46.10
2023-02-17T09:44:33.426Z,46.80
2023-02-17T09:47:05.445Z,59.70
2023-02-17T09:49:40.028Z,64.10
2023-02-17T09:52:15.586Z,73.90
2023-02-17T09:54:55.389Z,86.30
2023-02-17T09:57:28.403Z,90.10
2023-02-17T10:00:00.213Z,91.10
2023-02-17T10:02:38.444Z,90.90
2023-02-17T10:05:12.515Z,92.70
2023-02-17T10:07:44.914Z,95.90
2023-02-17T10:10:17.137Z,94.40
2023-02-17T10:12:48.324Z,93.80
2023-02-17T10:15:23.141Z,94.70
2023-02-17T10:17:58.333Z,95.80
2023-02-17T10:20:33.873Z,97.10
2023-02-17T10:23:08.440Z,97.30
2023-02-17T10:25:50.232Z,96.10
2023-02-17T10:28:27.923Z,97.80
2023-02-17T10:31:04.316Z,97.20
2023-02-17T10:33:37.547Z,97.90
2023-02-17T10:36:15.693Z,98.10
2023-02-17T10:38:50.587Z,94.00
2023-02-17T10:41:23.686Z,96.20
2023-02-17T10:43:52.334Z,95.80
2023-02-17T10:46:27.046Z,94.60
2023-02-17T10:48:59.001Z,92.70
2023-02-17T10:51:30.669Z,87.50
2023-02-17T10:54:06.411Z,82.10
2023-02-17T10:56:39.928Z,79.90
2023-02-17T10:59:18.628Z,84.70
2023-02-17T11:01:46.947Z,91.00
2023-02-17T11:04:14.994Z,91.00
2023-02-17T11:06:52.413Z,88.70
2023-02-17T11:09:23.345Z,90.30
2023-02-17T11:11:59.801Z,94.30
2023-02-17T11:14:30.330Z,96.80
2023-02-17T11:17:03.730Z,96.70
2023-02-17T11:19:36.881Z,96.60
2023-02-17T11:22:27.287Z,99.90
2023-02-17T11:24:59.497Z,99.90
2023-02-17T11:27:27.740Z,99.90
2023-02-17T11:30:08.195Z,97.80
2023-02-17T11:32:38.244Z,97.50
2023-02-17T11:35:22.022Z,96.20
2023-02-17T11:37:51.927Z,94.60
2023-02-17T11:40:26.874Z,94.10
2023-02-17T11:42:59.309Z,94.30
2023-02-17T11:45:32.290Z,95.50
2023-02-17T11:48:15.806Z,95.10
2023-02-17T11:50:50.955Z,94.60
2023-02-17T11:53:31.927Z,93.40
2023-02-17T11:56:10.647Z,93.50
2023-02-17T11:59:00.527Z,93.70
2023-02-17T12:01:49.536Z,91.50
2023-02-17T12:04:27.704Z,92.00
2023-02-17T12:07:28.876Z,95.10
2023-02-17T12:10:04.696Z,94.10
2023-02-17T12:12:47.589Z,94.20
2023-02-17T12:15:30.213Z,95.50
2023-02-17T12:18:17.077Z,96.30
2023-02-17T12:20:55.404Z,98.50
2023-02-17T12:23:42.287Z,97.00
2023-02-17T12:26:19.251Z,95.80
2023-02-17T12:28:59.175Z,93.70
2023-02-17T12:31:51.523Z,95.90
2023-02-17T12:34:26.540Z,95.00
2023-02-17T12:36:57.394Z,94.30
2023-02-17T12:39:29.868Z,94.20
2023-02-17T12:42:08.310Z,94.50
2023-02-17T12:44:43.407Z,94.40
2023-02-17T12:47:14.569Z,93.40
2023-02-17T12:49:48.758Z,93.70
2023-02-17T12:52:23.530Z,94.10
2023-02-17T12:54:59.472Z,92.40
2023-02-17T12:57:35.607Z,92.10
2023-02-17T13:00:12.794Z,91.60
2023-02-17T13:02:41.703Z,93.30
2023-02-17T13:05:22.134Z,92.40
2023-02-17T13:07:59.267Z,93.50
2023-02-17T13:10:35.133Z,93.20
2023-02-17T13:13:07.932Z,92.90
2023-02-17T13:15:39.391Z,93.00
2023-02-17T13:18:12.447Z,93.20
2023-02-17T13:20:57.180Z,92.70
2023-02-17T13:23:40.760Z,94.20
2023-02-17T13:26:28.127Z,94.80
2023-02-17T13:29:26.246Z,94.20
2023-02-17T13:31:56.179Z,94.90
2023-02-17T13:34:30.740Z,94.90
2023-02-17T13:37:01.763Z,95.70
2023-02-17T13:39:37.167Z,97.40
2023-02-17T13:42:07.339Z,98.80
2023-02-17T13:44:41.721Z,99.90
2023-02-17T13:47:20.768Z,99.20
2023-02-17T13:49:54.025Z,98.80
2023-02-17T13:52:25.934Z,98.10
2023-02-17T13:54:58.627Z,98.00
2023-02-17T13:57:29.107Z,98.20
2023-02-17T14:00:24.262Z,99.40
2023-02-17T14:02:54.144Z,99.50
2023-02-17T14:05:27.471Z,99.90
2023-02-17T14:08:00.163Z,99.90
2023-02-17T14:10:31.223Z,99.90
2023-02-17T14:12:59.768Z,99.90
2023-02-17T14:15:30.421Z,99.90
2023-02-17T14:18:00.156Z,99.90
2023-02-17T14:20:34.301Z,99.90
2023-02-17T14:23:05.595Z,99.90
2023-02-17T14:25:36.390Z,99.90
2023-02-17T14:28:07.672Z,99.90
2023-02-17T14:30:40.889Z,99.90
2023-02-17T14:33:30.009Z,99.90
2023-02-17T14:36:00.330Z,99.90
2023-02-17T14:38:31.924Z,99.90
2023-02-17T14:41:01.091Z,99.90
2023-02-17T14:43:29.617Z,99.10
2023-02-17T14:45:59.609Z,99.10
2023-02-17T14:48:28.272Z,99.80
2023-02-17T14:50:59.496Z,99.10
2023-02-17T14:53:29.659Z,99.20
2023-02-17T14:56:00.982Z,98.30
2023-02-17T14:58:30.010Z,99.90
2023-02-17T15:01:00.151Z,99.90
2023-02-17T15:03:28.427Z,99.90
2023-02-17T15:06:00.956Z,99.90
2023-02-17T15:08:33.709Z,99.90
2023-02-17T15:11:02.237Z,99.90
2023-02-17T15:13:31.784Z,99.90
2023-02-17T15:16:08.489Z,99.90
2023-02-17T15:18:37.151Z,99.90
2023-02-17T15:21:20.513Z,99.90
2023-02-17T15:23:48.598Z,99.90
2023-02-17T15:26:16.629Z,99.90
2023-02-17T15:28:44.633Z,99.90
2023-02-17T15:31:16.624Z,99.90
2023-02-17T15:33:45.557Z,99.90
2023-02-17T15:36:15.814Z,99.90
2023-02-17T15:38:44.175Z,99.90
2023-02-17T15:41:19.116Z,99.90
2023-02-17T15:43:48.754Z,99.90
2023-02-17T15:46:23.768Z,99.90
2023-02-17T15:48:57.196Z,99.90
2023-02-17T15:51:25.248Z,99.90
2023-02-17T15:53:53.805Z,99.90
2023-02-17T15:56:24.743Z,99.90
2023-02-17T15:58:56.271Z,99.90
2023-02-17T16:01:29.770Z,99.90
2023-02-17T16:03:58.432Z,99.90
2023-02-17T16:06:26.879Z,99.90
2023-02-17T16:08:55.619Z,99.90
2023-02-17T16:11:24.434Z,99.90
2023-02-17T16:13:53.063Z,99.90
2023-02-17T16:16:24.264Z,99.90
2023-02-17T16:18:53.892Z,99.90
2023-02-17T16:21:24.340Z,99.90
2023-02-17T16:23:58.885Z,99.90
2023-02-17T16:26:30.184Z,99.90
2023-02-17T16:28:58.673Z,99.90
2023-02-17T16:31:35.753Z,99.90
2023-02-17T16:34:05.453Z,99.90
2023-02-17T16:36:36.448Z,99.90
2023-02-17T16:39:12.029Z,99.90
2023-02-17T16:41:40.741Z,99.90
2023-02-17T16:44:08.938Z,99.90
2023-02-17T16:46:40.842Z,99.90
2023-02-17T16:49:45.046Z,99.90
2023-02-17T16:52:24.195Z,99.90
2023-02-17T16:54:52.475Z,99.90
2023-02-17T16:57:21.509Z,99.90
2023-02-17T16:59:49.720Z,99.90
2023-02-17T17:02:21.540Z,99.90
2023-02-17T17:04:52.053Z,99.90
2023-02-17T17:07:20.372Z,99.90
2023-02-17T17:10:14.281Z,99.90
2023-02-17T17:12:39.823Z,99.90
2023-02-17T17:15:08.787Z,99.90
2023-02-17T17:17:41.328Z,99.90
2023-02-17T17:20:18.106Z,99.90
2023-02-17T17:22:49.278Z,99.90
2023-02-17T17:25:17.493Z,99.90
2023-02-17T17:27:45.976Z,99.90
2023-02-17T17:30:21.986Z,99.90
2023-02-17T17:32:50.303Z,99.90
2023-02-17T17:35:20.709Z,99.90
2023-02-17T17:37:49.038Z,99.90
2023-02-17T17:40:21.758Z,99.90
2023-02-17T17:42:50.091Z,99.90
2023-02-17T17:45:18.740Z,99.90
2023-02-17T17:47:47.086Z,99.90
2023-02-17T17:50:18.809Z,99.90
2023-02-17T17:52:48.648Z,99.90
2023-02-17T17:55:23.188Z,99.90
2023-02-17T17:58:19.717Z,99.90
2023-02-17T18:01:09.706Z,99.90
2023-02-17T18:03:38.116Z,99.90
2023-02-17T18:06:09.669Z,99.90
2023-02-17T18:08:39.652Z,99.90
2023-02-17T18:11:08.695Z,99.90
2023-02-17T18:13:36.779Z,99.90
2023-02-17T18:16:05.881Z,99.90
2023-02-17T18:18:34.220Z,99.90
2023-02-17T18:21:02.308Z,99.90
2023-02-17T18:23:51.915Z,99.90
2023-02-17T18:26:34.130Z,99.90
2023-02-17T18:29:02.968Z,99.90
2023-02-17T18:31:31.235Z,99.90
2023-02-17T18:34:02.417Z,99.90
2023-02-17T18:36:30.880Z,99.90
2023-02-17T18:39:03.352Z,99.90
2023-02-17T18:41:35.946Z,99.90
2023-02-17T18:44:06.012Z,99.90
2023-02-17T18:46:34.354Z,99.90
2023-02-17T18:49:02.562Z,99.90
2023-02-17T18:51:30.606Z,99.90
2023-02-17T18:54:01.627Z,99.90
2023-02-17T18:56:37.999Z,99.90
2023-02-17T18:59:06.470Z,99.90
2023-02-17T19:01:39.201Z,99.90
2023-02-17T19:04:09.664Z,99.90
2023-02-17T19:06:38.122Z,99.90
2023-02-17T19:09:07.882Z,99.90
2023-02-17T19:11:42.125Z,99.90
2023-02-17T19:14:10.239Z,99.90
2023-02-17T19:16:39.323Z,99.90
2023-02-17T19:19:07.588Z,99.90
2023-02-17T19:21:36.499Z,99.90
2023-02-17T19:24:10.686Z,99.90
2023-02-17T19:26:39.103Z,99.90
2023-02-17T19:29:07.173Z,99.90
2023-02-17T19:31:35.360Z,99.90
2023-02-17T19:34:04.106Z,99.90
2023-02-17T19:36:32.449Z,99.90
2023-02-17T19:39:03.824Z,99.90
2023-02-17T19:41:37.244Z,99.90
2023-02-17T19:44:05.867Z,99.90
2023-02-17T19:46:34.162Z,99.90
2023-02-17T19:49:05.848Z,99.90
2023-02-17T19:51:40.479Z,99.90
2023-02-17T19:54:22.587Z,99.90
2023-02-17T19:57:03.197Z,99.90
2023-02-17T19:59:35.370Z,99.90
2023-02-17T20:02:03.669Z,99.90
2023-02-17T20:04:39.044Z,99.90
2023-02-17T20:07:22.177Z,99.90
2023-02-17T20:09:51.837Z,99.90
2023-02-17T20:12:38.475Z,99.90
2023-02-17T20:15:10.297Z,99.90
2023-02-17T20:17:44.566Z,99.90
2023-02-17T20:20:23.009Z,99.90
2023-02-17T20:23:01.638Z,99.90
2023-02-17T20:25:35.758Z,99.90
2023-02-17T20:28:26.287Z,99.90
2023-02-17T20:30:58.617Z,99.90
2023-02-17T20:33:34.382Z,99.90
2023-02-17T20:36:10.572Z,99.90
2023-02-17T20:38:45.098Z,99.90
2023-02-17T20:41:30.315Z,99.90
2023-02-17T20:44:20.283Z,99.90
2023-02-17T20:47:01.878Z,99.90
2023-02-17T20:49:33.240Z,99.90
2023-02-17T20:52:05.780Z,99.90
2023-02-17T20:54:40.611Z,99.90
2023-02-17T20:57:14.739Z,99.90
2023-02-17T20:59:49.411Z,99.90
2023-02-17T21:02:22.827Z,99.90
2023-02-17T21:04:56.244Z,99.90
2023-02-17T21:07:24.469Z,99.90
2023-02-17T21:09:54.427Z,99.90
2023-02-17T21:12:22.556Z,99.90
2023-02-17T21:14:52.096Z,99.90
2023-02-17T21:17:20.185Z,99.90
2023-02-17T21:19:48.622Z,99.90
2023-02-17T21:22:21.092Z,99.90
2023-02-17T21:24:49.576Z,99.90
2023-02-17T21:27:17.612Z,99.90
2023-02-17T21:29:45.659Z,99.90
2023-02-17T21:32:16.193Z,99.90
2023-02-17T21:34:44.296Z,99.90
2023-02-17T21:37:12.611Z,99.90
2023-02-17T21:39:43.789Z,99.90
2023-02-17T21:42:12.107Z,99.90
2023-02-17T21:44:55.344Z,99.90
2023-02-17T21:47:24.803Z,99.90
2023-02-17T21:49:59.586Z,99.90
2023-02-17T21:52:27.780Z,99.90
2023-02-17T21:54:56.290Z,99.90
2023-02-17T21:57:24.329Z,99.90
2023-02-17T21:59:52.790Z,99.90
2023-02-17T22:02:20.818Z,99.90
2023-02-17T22:04:50.192Z,99.90
2023-02-17T22:07:18.247Z,99.90
2023-02-17T22:09:46.290Z,99.90
2023-02-17T22:12:14.654Z,99.90
2023-02-17T22:14:42.711Z,99.90
2023-02-17T22:17:11.013Z,99.90
2023-02-17T22:19:39.299Z,99.90
2023-02-17T22:22:08.707Z,99.90
2023-02-17T22:24:36.954Z,99.90
2023-02-17T22:27:04.987Z,99.90
2023-02-17T22:29:33.022Z,99.90
2023-02-17T22:32:01.168Z,99.90
2023-02-17T22:34:29.308Z,99.90
2023-02-17T22:36:57.308Z,99.90
2023-02-17T22:39:26.746Z,99.90
2023-02-17T22:41:55.051Z,99.90
2023-02-17T22:44:23.191Z,99.90
2023-02-17T22:46:51.154Z,99.90
2023-02-17T22:49:19.173Z,99.90
2023-02-17T22:51:47.241Z,99.90
2023-02-17T22:54:15.416Z,99.90
2023-02-17T22:56:45.004Z,99.90
2023-02-17T22:59:13.248Z,99.90
2023-02-17T23:01:41.284Z,99.90
2023-02-17T23:04:09.334Z,99.90
2023-02-17T23:06:38.434Z,99.90
2023-02-17T23:09:08.844Z,99.90
2023-02-17T23:11:50.719Z,99.90
2023-02-17T23:14:22.332Z,99.90
2023-02-17T23:16:51.503Z,99.90
2023-02-17T23:19:21.341Z,99.90
2023-02-17T23:21:52.111Z,99.90
2023-02-17T23:24:21.742Z,99.90
2023-02-17T23:26:50.335Z,99.90
2023-02-17T23:29:19.802Z,99.90
2023-02-17T23:31:48.221Z,99.90
2023-02-17T23:34:17.124Z,99.90
2023-02-17T23:36:49.862Z,99.90
2023-02-17T23:39:18.758Z,99.90
2023-02-17T23:41:46.900Z,99.90
2023-02-17T23:44:15.952Z,99.90
2023-02-17T23:46:46.840Z,99.90
2023-02-17T23:49:18.222Z,99.90
2023-02-17T23:51:47.272Z,99.90
2023-02-17T23:54:15.618Z,99.90
2023-02-17T23:56:43.869Z,99.90
2023-02-17T23:59:12.062Z,99.90
